createdAt,value
2022-10-21T00:00:40.345Z,8.50
2022-10-21T00:03:07.692Z,11.63
2022-10-21T00:05:34.821Z,8.07
2022-10-21T00:08:01.859Z,7.27
2022-10-21T00:10:29.015Z,9.90
2022-10-21T00:12:56.123Z,9.93
2022-10-21T00:15:23.214Z,8.63
2022-10-21T00:17:50.352Z,11.60
2022-10-21T00:20:18.064Z,8.40
2022-10-21T00:22:45.600Z,10.10
2022-10-21T00:25:12.946Z,8.20
2022-10-21T00:27:40.483Z,7.53
2022-10-21T00:30:08.814Z,7.97
2022-10-21T00:32:36.222Z,7.77
2022-10-21T00:35:04.004Z,10.37
2022-10-21T00:37:32.114Z,9.10
2022-10-21T00:39:59.645Z,7.93
2022-10-21T00:42:40.747Z,8.77
2022-10-21T00:45:20.596Z,8.77
2022-10-21T00:48:12.551Z,10.93
2022-10-21T00:51:08.292Z,9.27
2022-10-21T00:53:37.620Z,9.60
2022-10-21T00:56:16.239Z,10.43
2022-10-21T00:58:46.713Z,11.27
2022-10-21T01:01:17.839Z,12.43
2022-10-21T01:03:48.223Z,12.40
2022-10-21T01:06:16.659Z,8.70
2022-10-21T01:08:43.923Z,20.23
2022-10-21T01:11:14.746Z,10.57
2022-10-21T01:13:56.867Z,10.77
2022-10-21T01:16:44.414Z,9.07
2022-10-21T01:19:35.885Z,9.47
2022-10-21T01:22:30.226Z,12.50
2022-10-21T01:25:24.621Z,11.23
2022-10-21T01:28:13.189Z,11.17
2022-10-21T01:30:45.779Z,9.60
2022-10-21T01:33:21.804Z,10.90
2022-10-21T01:35:48.902Z,9.77
2022-10-21T01:38:43.683Z,8.77
2022-10-21T01:41:35.631Z,9.30
2022-10-21T01:44:36.189Z,11.17
2022-10-21T01:47:09.923Z,9.93
2022-10-21T01:49:42.392Z,11.47
2022-10-21T01:52:10.636Z,10.83
2022-10-21T01:54:48.133Z,11.10
2022-10-21T01:57:18.734Z,12.60
2022-10-21T01:59:47.955Z,11.60
2022-10-21T02:02:17.266Z,10.73
2022-10-21T02:04:45.597Z,11.73
2022-10-21T02:07:12.726Z,12.17
2022-10-21T02:09:39.810Z,13.20
2022-10-21T02:12:07.856Z,11.27
2022-10-21T02:14:48.705Z,13.40
2022-10-21T02:17:22.080Z,14.47
2022-10-21T02:19:49.226Z,14.93
2022-10-21T02:22:20.823Z,17.70
2022-10-21T02:24:51.516Z,15.20
2022-10-21T02:27:19.559Z,13.80
2022-10-21T02:29:48.588Z,17.97
2022-10-21T02:32:52.452Z,13.63
2022-10-21T02:36:07.720Z,13.23
2022-10-21T02:38:44.124Z,14.20
2022-10-21T02:41:13.527Z,13.50
2022-10-21T02:43:43.200Z,14.27
2022-10-21T02:46:12.985Z,14.80
2022-10-21T02:48:43.945Z,14.80
2022-10-21T02:51:11.930Z,14.43
2022-10-21T02:53:39.184Z,13.13
2022-10-21T02:56:07.056Z,14.87
2022-10-21T02:58:37.627Z,18.87
2022-10-21T03:01:04.898Z,14.90
2022-10-21T03:03:32.060Z,16.70
2022-10-21T03:05:59.133Z,13.03
2022-10-21T03:08:26.313Z,16.30
2022-10-21T03:10:54.611Z,13.37
2022-10-21T03:13:22.720Z,19.13
2022-10-21T03:15:50.906Z,13.70
2022-10-21T03:18:18.407Z,15.10
2022-10-21T03:20:48.768Z,12.83
2022-10-21T03:23:16.564Z,14.50
2022-10-21T03:25:43.760Z,14.73
2022-10-21T03:28:11.179Z,15.73
2022-10-21T03:30:38.331Z,13.50
2022-10-21T03:33:05.707Z,13.57
2022-10-21T03:35:32.954Z,14.20
2022-10-21T03:38:00.066Z,15.10
2022-10-21T03:40:30.498Z,16.00
2022-10-21T03:42:58.279Z,16.30
2022-10-21T03:45:25.792Z,23.57
2022-10-21T03:47:53.068Z,14.30
2022-10-21T03:50:23.770Z,13.80
2022-10-21T03:52:52.620Z,12.60
2022-10-21T03:55:21.173Z,12.33
2022-10-21T03:57:52.440Z,17.07
2022-10-21T04:00:20.303Z,14.53
2022-10-21T04:02:47.773Z,15.93
2022-10-21T04:05:15.238Z,12.40
2022-10-21T04:07:42.600Z,17.50
2022-10-21T04:10:10.595Z,13.70
2022-10-21T04:12:38.010Z,16.00
2022-10-21T04:15:06.151Z,15.77
2022-10-21T04:17:33.445Z,18.10
2022-10-21T04:20:00.557Z,17.80
2022-10-21T04:22:27.676Z,18.67
2022-10-21T04:24:54.847Z,16.70
2022-10-21T04:27:21.935Z,11.97
2022-10-21T04:29:49.017Z,17.30
2022-10-21T04:32:16.157Z,15.33
2022-10-21T04:34:43.422Z,14.87
2022-10-21T04:37:10.533Z,16.37
2022-10-21T04:39:37.751Z,16.63
2022-10-21T04:42:05.552Z,14.67
2022-10-21T04:44:32.699Z,14.20
2022-10-21T04:46:59.839Z,15.00
2022-10-21T04:49:26.943Z,16.47
2022-10-21T04:51:54.063Z,16.80
2022-10-21T04:54:21.243Z,15.47
2022-10-21T04:56:48.436Z,17.50
2022-10-21T04:59:15.644Z,17.03
2022-10-21T05:01:42.775Z,14.30
2022-10-21T05:04:09.907Z,13.20
2022-10-21T05:06:36.988Z,16.70
2022-10-21T05:09:04.390Z,13.13
2022-10-21T05:11:31.638Z,15.43
2022-10-21T05:13:58.694Z,15.40
2022-10-21T05:16:25.963Z,12.23
2022-10-21T05:18:53.101Z,11.90
2022-10-21T05:21:20.510Z,14.17
2022-10-21T05:23:47.654Z,17.87
2022-10-21T05:26:14.743Z,14.17
2022-10-21T05:28:41.874Z,11.70
2022-10-21T05:31:09.013Z,12.13
2022-10-21T05:33:36.391Z,12.87
2022-10-21T05:36:07.844Z,12.33
2022-10-21T05:38:35.339Z,12.87
2022-10-21T05:41:03.090Z,12.20
2022-10-21T05:43:30.486Z,13.77
2022-10-21T05:45:58.079Z,13.17
2022-10-21T05:48:25.271Z,11.70
2022-10-21T05:50:54.442Z,11.43
2022-10-21T05:53:24.013Z,11.47
2022-10-21T05:56:02.275Z,12.57
2022-10-21T05:58:31.142Z,11.17
2022-10-21T06:00:59.028Z,15.03
2022-10-21T06:03:30.172Z,11.47
2022-10-21T06:05:58.449Z,12.03
2022-10-21T06:08:26.571Z,13.23
2022-10-21T06:11:11.605Z,11.50
2022-10-21T06:13:38.852Z,11.17
2022-10-21T06:16:07.430Z,11.10
2022-10-21T06:18:35.093Z,9.87
2022-10-21T06:21:02.514Z,9.57
2022-10-21T06:23:29.637Z,10.90
2022-10-21T06:26:00.611Z,12.30
2022-10-21T06:28:29.887Z,15.33
2022-10-21T06:30:57.357Z,11.37
2022-10-21T06:33:26.967Z,18.30
2022-10-21T06:35:55.616Z,10.37
2022-10-21T06:38:26.299Z,13.77
2022-10-21T06:41:00.410Z,12.70
2022-10-21T06:43:27.583Z,11.80
2022-10-21T06:46:03.029Z,11.73
2022-10-21T06:48:30.177Z,13.50
2022-10-21T06:51:09.602Z,14.70
2022-10-21T06:53:39.202Z,15.60
2022-10-21T06:56:18.422Z,11.80
2022-10-21T06:58:48.217Z,13.23
2022-10-21T07:01:33.660Z,14.07
2022-10-21T07:04:03.429Z,15.07
2022-10-21T07:06:31.050Z,17.03
2022-10-21T07:08:59.161Z,15.10
2022-10-21T07:11:28.346Z,32.30
2022-10-21T07:13:55.526Z,18.73
2022-10-21T07:16:25.856Z,33.10
2022-10-21T07:18:53.598Z,24.90
2022-10-21T07:21:23.422Z,32.87
2022-10-21T07:23:52.630Z,23.30
2022-10-21T07:26:21.613Z,23.60
2022-10-21T07:28:49.383Z,19.77
2022-10-21T07:31:20.953Z,20.93
2022-10-21T07:33:48.822Z,27.40
2022-10-21T07:36:23.480Z,20.47
2022-10-21T07:38:52.011Z,21.40
2022-10-21T07:41:31.970Z,17.93
2022-10-21T07:43:59.203Z,22.07
2022-10-21T07:46:26.657Z,26.80
2022-10-21T07:48:56.821Z,23.40
2022-10-21T07:51:28.553Z,19.93
2022-10-21T07:54:00.191Z,22.87
2022-10-21T07:56:33.541Z,17.13
2022-10-21T07:59:07.699Z,22.00
2022-10-21T08:01:40.472Z,20.40
2022-10-21T08:04:07.796Z,19.10
2022-10-21T08:06:35.289Z,22.33
2022-10-21T08:09:02.677Z,20.60
2022-10-21T08:11:33.018Z,22.37
2022-10-21T08:14:00.262Z,21.00
2022-10-21T08:16:27.729Z,18.70
2022-10-21T08:18:55.721Z,20.57
2022-10-21T08:21:22.926Z,17.60
2022-10-21T08:23:50.024Z,18.83
2022-10-21T08:26:17.290Z,17.90
2022-10-21T08:28:44.714Z,20.17
2022-10-21T08:31:14.303Z,19.77
2022-10-21T08:33:41.807Z,15.90
2022-10-21T08:36:23.367Z,18.47
2022-10-21T08:38:50.937Z,17.57
2022-10-21T08:41:27.310Z,19.83
2022-10-21T08:44:15.266Z,17.50
2022-10-21T08:47:00.502Z,16.53
2022-10-21T08:49:49.968Z,19.97
2022-10-21T08:52:21.636Z,22.23
2022-10-21T08:54:59.691Z,20.63
2022-10-21T08:57:27.649Z,17.20
2022-10-21T08:59:56.418Z,18.77
2022-10-21T09:02:59.179Z,18.30
2022-10-21T09:05:39.723Z,16.83
2022-10-21T09:08:16.197Z,20.77
2022-10-21T09:10:58.314Z,16.33
2022-10-21T09:13:37.377Z,18.30
2022-10-21T09:16:44.850Z,22.50
2022-10-21T09:19:31.222Z,20.50
2022-10-21T09:22:35.280Z,23.20
2022-10-21T09:25:15.253Z,19.43
2022-10-21T09:27:55.466Z,17.67
2022-10-21T09:30:23.724Z,21.90
2022-10-21T09:32:56.470Z,16.00
2022-10-21T09:35:26.637Z,13.87
2022-10-21T09:38:18.602Z,15.50
2022-10-21T09:40:48.493Z,24.70
2022-10-21T09:43:23.788Z,15.60
2022-10-21T09:45:50.986Z,19.63
2022-10-21T09:48:18.247Z,16.03
2022-10-21T09:51:07.019Z,17.53
2022-10-21T09:53:36.948Z,14.30
2022-10-21T09:56:11.779Z,15.07
2022-10-21T09:58:38.845Z,24.67
2022-10-21T10:01:06.792Z,23.47
2022-10-21T10:03:48.728Z,22.10
2022-10-21T10:06:32.292Z,22.53
2022-10-21T10:09:32.713Z,20.70
2022-10-21T10:12:04.792Z,25.77
2022-10-21T10:14:39.253Z,15.40
2022-10-21T10:17:31.979Z,17.70
2022-10-21T10:20:05.533Z,16.10
2022-10-21T10:22:34.189Z,16.93
2022-10-21T10:25:22.889Z,17.20
2022-10-21T10:28:05.151Z,17.43
2022-10-21T10:30:45.470Z,17.23
2022-10-21T10:33:35.706Z,14.90
2022-10-21T10:36:09.348Z,25.60
2022-10-21T10:38:45.243Z,23.03
2022-10-21T10:41:17.818Z,20.33
2022-10-21T10:43:46.024Z,23.27
2022-10-21T10:46:32.841Z,17.73
2022-10-21T10:49:05.922Z,22.47
2022-10-21T10:51:35.584Z,21.80
2022-10-21T10:54:16.530Z,19.33
2022-10-21T10:57:00.745Z,25.60
2022-10-21T10:59:30.618Z,25.97
2022-10-21T11:02:22.373Z,29.33
2022-10-21T11:05:11.216Z,26.70
2022-10-21T11:07:43.660Z,26.67
2022-10-21T11:10:34.460Z,23.60
2022-10-21T11:13:03.910Z,26.93
2022-10-21T11:15:55.337Z,25.23
2022-10-21T11:18:49.741Z,21.17
2022-10-21T11:21:25.784Z,22.20
2022-10-21T11:24:01.637Z,21.17
2022-10-21T11:26:52.162Z,19.03
2022-10-21T11:29:37.068Z,20.30
2022-10-21T11:32:21.797Z,19.07
2022-10-21T11:35:26.390Z,20.30
2022-10-21T11:38:14.875Z,44.13
2022-10-21T11:41:08.120Z,20.33
2022-10-21T11:44:16.765Z,19.53
2022-10-21T11:47:05.959Z,20.50
2022-10-21T11:49:49.513Z,19.17
2022-10-21T11:52:42.753Z,19.30
2022-10-21T11:55:35.163Z,20.90
2022-10-21T11:58:12.623Z,23.13
2022-10-21T12:01:03.423Z,19.87
2022-10-21T12:03:58.304Z,29.40
2022-10-21T12:06:53.117Z,21.97
2022-10-21T12:09:32.631Z,24.70
2022-10-21T12:12:14.951Z,27.77
2022-10-21T12:14:55.333Z,26.40
2022-10-21T12:17:24.006Z,27.60
2022-10-21T12:19:57.112Z,24.53
2022-10-21T12:22:27.247Z,25.53
2022-10-21T12:25:23.879Z,25.73
2022-10-21T12:28:08.899Z,25.47
2022-10-21T12:30:54.330Z,25.67
2022-10-21T12:33:43.498Z,22.90
2022-10-21T12:36:44.361Z,26.23
2022-10-21T12:39:34.514Z,23.83
2022-10-21T12:42:17.320Z,21.17
2022-10-21T12:44:49.746Z,23.73
2022-10-21T12:47:29.146Z,19.00
2022-10-21T12:50:14.186Z,24.60
2022-10-21T12:52:43.650Z,28.27
2022-10-21T12:55:26.179Z,24.50
2022-10-21T12:58:02.655Z,22.27
2022-10-21T13:00:29.958Z,20.93
2022-10-21T13:03:14.433Z,24.67
2022-10-21T13:05:41.535Z,23.07
2022-10-21T13:08:21.079Z,19.73
2022-10-21T13:11:06.114Z,23.07
2022-10-21T13:13:44.662Z,22.80
2022-10-21T13:16:20.986Z,23.00
2022-10-21T13:18:51.449Z,21.10
2022-10-21T13:21:39.365Z,31.47
2022-10-21T13:24:12.970Z,22.87
2022-10-21T13:26:51.365Z,20.57
2022-10-21T13:29:47.131Z,24.40
2022-10-21T13:32:14.167Z,23.57
2022-10-21T13:34:53.921Z,32.80
2022-10-21T13:37:34.792Z,18.33
2022-10-21T13:40:06.938Z,27.63
2022-10-21T13:42:39.616Z,17.00
2022-10-21T13:45:26.964Z,19.33
2022-10-21T13:48:05.631Z,18.50
2022-10-21T13:50:38.577Z,19.23
2022-10-21T13:53:18.423Z,16.70
2022-10-21T13:56:07.563Z,21.00
2022-10-21T13:58:39.580Z,22.23
2022-10-21T14:01:12.582Z,18.63
2022-10-21T14:03:40.632Z,16.00
2022-10-21T14:06:09.727Z,16.90
2022-10-21T14:08:43.765Z,16.13
2022-10-21T14:11:22.951Z,21.60
2022-10-21T14:13:51.576Z,22.70
2022-10-21T14:16:22.548Z,23.03
2022-10-21T14:18:52.824Z,83.73
2022-10-21T14:21:27.998Z,64.33
2022-10-21T14:23:58.032Z,52.73
2022-10-21T14:26:30.566Z,50.30
2022-10-21T14:29:00.612Z,45.57
2022-10-21T14:31:28.201Z,41.40
2022-10-21T14:33:55.593Z,38.33
2022-10-21T14:36:26.064Z,39.03
2022-10-21T14:39:00.632Z,35.83
2022-10-21T14:41:41.484Z,37.50
2022-10-21T14:44:19.280Z,40.70
2022-10-21T14:46:49.746Z,30.83
2022-10-21T14:49:47.919Z,34.40
2022-10-21T14:52:23.315Z,36.60
2022-10-21T14:55:00.795Z,32.80
2022-10-21T14:57:47.785Z,31.77
2022-10-21T15:00:30.387Z,31.30
2022-10-21T15:02:59.486Z,25.83
2022-10-21T15:05:38.057Z,29.27
2022-10-21T15:08:34.476Z,30.33
2022-10-21T15:11:12.120Z,29.10
2022-10-21T15:13:39.265Z,28.27
2022-10-21T15:16:19.412Z,26.77
2022-10-21T15:18:49.060Z,29.60
2022-10-21T15:21:45.324Z,24.07
2022-10-21T15:24:47.109Z,23.00
2022-10-21T15:27:37.130Z,24.40
2022-10-21T15:30:14.300Z,25.13
2022-10-21T15:32:41.466Z,25.53
2022-10-21T15:35:17.779Z,26.77
2022-10-21T15:37:51.744Z,21.53
2022-10-21T15:40:20.891Z,21.10
2022-10-21T15:42:48.415Z,21.97
2022-10-21T15:45:22.304Z,19.60
2022-10-21T15:47:54.167Z,20.07
2022-10-21T15:50:26.654Z,25.53
2022-10-21T15:55:26.083Z,23.90
2022-10-21T15:57:53.231Z,20.23
2022-10-21T16:00:23.067Z,21.63
2022-10-21T16:02:51.813Z,16.70
2022-10-21T16:05:21.355Z,21.17
2022-10-21T16:07:48.622Z,20.40
2022-10-21T16:10:26.039Z,18.63
2022-10-21T16:12:53.544Z,17.70
2022-10-21T16:15:21.183Z,22.70
2022-10-21T16:17:51.852Z,17.90
2022-10-21T16:20:24.208Z,15.80
2022-10-21T16:22:51.660Z,20.70
2022-10-21T16:25:19.536Z,19.10
2022-10-21T16:28:02.461Z,19.50
2022-10-21T16:30:35.235Z,17.77
2022-10-21T16:33:02.434Z,18.33
2022-10-21T16:35:29.547Z,15.33
2022-10-21T16:37:56.779Z,17.93
2022-10-21T16:40:26.299Z,14.53
2022-10-21T16:42:54.016Z,15.57
2022-10-21T16:45:23.882Z,14.53
2022-10-21T16:47:54.347Z,15.00
2022-10-21T16:50:33.030Z,18.40
2022-10-21T16:53:02.220Z,13.17
2022-10-21T16:55:29.414Z,18.47
2022-10-21T16:57:56.528Z,17.53
2022-10-21T17:00:23.891Z,16.40
2022-10-21T17:02:52.531Z,14.33
2022-10-21T17:05:19.899Z,14.97
2022-10-21T17:07:47.384Z,16.40
2022-10-21T17:10:14.807Z,14.93
2022-10-21T17:12:42.093Z,17.20
2022-10-21T17:15:12.935Z,17.10
2022-10-21T17:17:40.280Z,19.03
2022-10-21T17:20:08.102Z,20.47
2022-10-21T17:22:35.182Z,19.37
2022-10-21T17:25:02.361Z,18.57
2022-10-21T17:27:29.466Z,14.53
2022-10-21T17:29:56.626Z,17.67
2022-10-21T17:32:25.027Z,23.03
2022-10-21T17:34:52.172Z,17.47
2022-10-21T17:37:19.311Z,17.03
2022-10-21T17:39:46.976Z,15.83
2022-10-21T17:42:17.246Z,16.07
2022-10-21T17:44:44.777Z,16.73
2022-10-21T17:47:13.985Z,19.63
2022-10-21T17:49:41.825Z,20.13
2022-10-21T17:52:09.454Z,19.00
2022-10-21T17:54:36.717Z,22.87
2022-10-21T17:57:04.491Z,24.87
2022-10-21T17:59:32.924Z,20.40
2022-10-21T18:02:00.830Z,18.07
2022-10-21T18:04:28.746Z,19.97
2022-10-21T18:06:55.971Z,21.60
2022-10-21T18:09:23.373Z,14.87
2022-10-21T18:11:50.575Z,16.30
2022-10-21T18:14:17.746Z,16.10
2022-10-21T18:16:45.034Z,15.93
2022-10-21T18:19:12.981Z,18.13
2022-10-21T18:21:40.385Z,14.67
2022-10-21T18:24:12.206Z,20.40
2022-10-21T18:26:40.159Z,15.97
2022-10-21T18:29:07.306Z,16.20
2022-10-21T18:31:38.463Z,17.50
2022-10-21T18:34:06.716Z,17.13
2022-10-21T18:36:34.255Z,23.27
2022-10-21T18:39:02.809Z,17.00
2022-10-21T18:41:30.610Z,16.27
2022-10-21T18:44:01.773Z,19.17
2022-10-21T18:46:29.835Z,19.70
2022-10-21T18:48:58.127Z,19.60
2022-10-21T18:51:25.780Z,20.37
2022-10-21T18:53:53.562Z,16.57
2022-10-21T18:56:23.024Z,18.80
2022-10-21T18:58:51.106Z,22.07
2022-10-21T19:01:19.890Z,16.20
2022-10-21T19:03:47.177Z,18.13
2022-10-21T19:06:15.095Z,18.00
2022-10-21T19:08:42.520Z,16.03
2022-10-21T19:11:09.668Z,19.70
2022-10-21T19:13:36.910Z,14.63
2022-10-21T19:16:04.222Z,16.77
2022-10-21T19:18:31.391Z,20.10
2022-10-21T19:20:58.492Z,16.33
2022-10-21T19:23:27.876Z,17.77
2022-10-21T19:25:55.091Z,15.20
2022-10-21T19:28:22.251Z,14.83
2022-10-21T19:30:49.421Z,19.30
2022-10-21T19:33:16.570Z,15.97
2022-10-21T19:35:43.783Z,14.37
2022-10-21T19:38:11.443Z,19.70
2022-10-21T19:40:43.062Z,14.40
2022-10-21T19:43:10.358Z,17.27
2022-10-21T19:45:37.680Z,14.10
2022-10-21T19:48:04.946Z,15.80
2022-10-21T19:50:32.119Z,15.87
2022-10-21T19:52:59.473Z,14.37
2022-10-21T19:55:26.619Z,12.70
2022-10-21T19:57:54.262Z,15.87
2022-10-21T20:00:21.501Z,14.20
2022-10-21T20:02:48.627Z,14.20
2022-10-21T20:05:15.749Z,16.13
2022-10-21T20:07:43.022Z,20.00
2022-10-21T20:10:10.661Z,17.03
2022-10-21T20:12:38.492Z,13.73
2022-10-21T20:15:06.607Z,13.33
2022-10-21T20:17:33.776Z,16.17
2022-10-21T20:20:01.035Z,14.70
2022-10-21T20:22:28.151Z,12.90
2022-10-21T20:24:55.269Z,13.70
2022-10-21T20:27:22.467Z,12.80
2022-10-21T20:29:49.565Z,16.00
2022-10-21T20:32:16.777Z,13.83
2022-10-21T20:34:44.064Z,13.07
2022-10-21T20:37:11.215Z,12.83
2022-10-21T20:39:38.476Z,15.63
2022-10-21T20:42:05.602Z,11.93
2022-10-21T20:44:32.710Z,12.97
2022-10-21T20:46:59.946Z,13.47
2022-10-21T20:49:27.214Z,13.50
2022-10-21T20:51:54.312Z,12.63
2022-10-21T20:54:22.914Z,14.40
2022-10-21T20:56:50.144Z,10.80
2022-10-21T20:59:17.718Z,10.83
2022-10-21T21:01:46.915Z,11.93
2022-10-21T21:04:16.286Z,11.10
2022-10-21T21:06:48.271Z,12.73
2022-10-21T21:12:04.455Z,14.00
2022-10-21T21:14:32.280Z,12.67
2022-10-21T21:16:59.498Z,13.47
2022-10-21T21:19:26.665Z,12.63
2022-10-21T21:21:53.776Z,12.23
2022-10-21T21:24:21.021Z,12.97
2022-10-21T21:26:48.211Z,11.47
2022-10-21T21:29:15.416Z,10.33
2022-10-21T21:31:42.994Z,11.90
2022-10-21T21:34:11.064Z,11.40
2022-10-21T21:36:38.596Z,10.90
2022-10-21T21:39:06.808Z,11.83
2022-10-21T21:41:34.553Z,16.13
2022-10-21T21:44:01.658Z,11.07
2022-10-21T21:46:29.032Z,10.93
2022-10-21T21:49:01.117Z,22.60
2022-10-21T21:51:33.192Z,11.40
2022-10-21T21:54:00.503Z,11.10
2022-10-21T21:56:28.273Z,12.97
2022-10-21T21:58:58.087Z,12.50
2022-10-21T22:01:29.749Z,11.87
2022-10-21T22:03:57.751Z,12.80
2022-10-21T22:06:28.521Z,12.30
2022-10-21T22:08:55.992Z,12.80
2022-10-21T22:11:26.143Z,14.90
2022-10-21T22:13:53.902Z,12.97
2022-10-21T22:16:24.453Z,13.83
2022-10-21T22:18:51.931Z,13.37
2022-10-21T22:21:19.910Z,12.70
2022-10-21T22:23:50.909Z,13.30
2022-10-21T22:26:20.090Z,13.70
2022-10-21T22:28:47.405Z,13.20
2022-10-21T22:31:16.792Z,15.93
2022-10-21T22:33:44.826Z,13.60
2022-10-21T22:36:12.098Z,15.20
2022-10-21T22:38:39.269Z,13.17
2022-10-21T22:41:09.920Z,12.93
2022-10-21T22:43:39.487Z,12.93
2022-10-21T22:46:21.596Z,13.10
2022-10-21T22:48:53.826Z,12.20
2022-10-21T22:51:20.980Z,14.80
2022-10-21T22:53:53.435Z,11.73
2022-10-21T22:56:24.292Z,11.63
2022-10-21T22:58:51.446Z,11.30
2022-10-21T23:01:18.602Z,10.43
2022-10-21T23:03:45.732Z,10.10
2022-10-21T23:06:12.845Z,9.77
2022-10-21T23:08:39.960Z,11.70
2022-10-21T23:11:07.141Z,10.90
2022-10-21T23:13:34.273Z,10.40
2022-10-21T23:16:01.515Z,11.17
2022-10-21T23:18:28.650Z,10.13
2022-10-21T23:20:55.754Z,9.30
2022-10-21T23:23:22.884Z,11.97
2022-10-21T23:25:50.048Z,11.07
2022-10-21T23:30:45.670Z,13.57
2022-10-21T23:33:12.784Z,10.37
2022-10-21T23:35:40.172Z,13.90
2022-10-21T23:38:07.361Z,10.90
2022-10-21T23:40:34.935Z,12.23
2022-10-21T23:43:02.043Z,13.10
2022-10-21T23:45:29.154Z,11.10
2022-10-21T23:47:56.280Z,10.73
2022-10-21T23:50:23.511Z,10.13
2022-10-21T23:52:50.700Z,9.80
2022-10-21T23:55:17.997Z,10.23
2022-10-21T23:57:45.295Z,9.73
